sensor_id;sensor_type;location;lat;lon;timestamp;P1;durP1;ratioP1;P2;durP2;ratioP2
69917;SDS011;57203;42.672;23.334;2022-08-01T00:00:21;3.8;;;2.5;;
69917;SDS011;57203;42.672;23.334;2022-08-01T00:02:22;3.3;;;2.2;;
69917;SDS011;57203;42.672;23.334;2022-08-01T00:03:22;3.3;;;2.4;;
69917;SDS011;57203;42.672;23.334;2022-08-01T00:04:22;4.4;;;2.5;;
69917;SDS011;57203;42.672;23.334;2022-08-01T00:05:22;3.8;;;2.4;;
69917;SDS011;57203;42.672;23.334;2022-08-01T00:06:23;3.8;;;2.0;;
69917;SDS011;57203;42.672;23.334;2022-08-01T00:07:23;3.9;;;2.1;;
69917;SDS011;57203;42.672;23.334;2022-08-01T00:09:23;4.0;;;1.9;;
69917;SDS011;57203;42.672;23.334;2022-08-01T00:10:24;2.9;;;2.2;;
69917;SDS011;57203;42.672;23.334;2022-08-01T00:11:24;4.0;;;2.3;;
69917;SDS011;57203;42.672;23.334;2022-08-01T00:12:24;4.3;;;2.2;;
69917;SDS011;57203;42.672;23.334;2022-08-01T00:14:25;2.6;;;1.8;;
69917;SDS011;57203;42.672;23.334;2022-08-01T00:15:25;2.3;;;1.9;;
69917;SDS011;57203;42.672;23.334;2022-08-01T00:16:25;5.4;;;1.8;;
69917;SDS011;57203;42.672;23.334;2022-08-01T00:17:25;2.2;;;2.0;;
69917;SDS011;57203;42.672;23.334;2022-08-01T00:18:26;2.6;;;1.9;;
69917;SDS011;57203;42.672;23.334;2022-08-01T00:19:26;2.7;;;2.1;;
69917;SDS011;57203;42.672;23.334;2022-08-01T00:20:26;2.9;;;1.8;;
69917;SDS011;57203;42.672;23.334;2022-08-01T00:21:26;3.3;;;1.9;;
69917;SDS011;57203;42.672;23.334;2022-08-01T00:22:26;2.6;;;1.8;;
69917;SDS011;57203;42.672;23.334;2022-08-01T00:24:27;3.4;;;1.7;;
69917;SDS011;57203;42.672;23.334;2022-08-01T00:25:27;2.4;;;1.9;;
69917;SDS011;57203;42.672;23.334;2022-08-01T00:26:27;2.4;;;1.7;;
69917;SDS011;57203;42.672;23.334;2022-08-01T00:28:28;2.2;;;1.8;;
69917;SDS011;57203;42.672;23.334;2022-08-01T00:29:28;3.1;;;1.9;;
69917;SDS011;57203;42.672;23.334;2022-08-01T00:30:28;2.1;;;2.0;;
69917;SDS011;57203;42.672;23.334;2022-08-01T00:32:30;4.1;;;2.7;;
69917;SDS011;57203;42.672;23.334;2022-08-01T00:33:29;4.5;;;3.0;;
69917;SDS011;57203;42.672;23.334;2022-08-01T00:35:29;3.9;;;3.1;;
69917;SDS011;57203;42.672;23.334;2022-08-01T00:36:30;3.7;;;3.4;;
69917;SDS011;57203;42.672;23.334;2022-08-01T00:37:30;5.1;;;3.3;;
69917;SDS011;57203;42.672;23.334;2022-08-01T00:38:30;3.6;;;3.6;;
69917;SDS011;57203;42.672;23.334;2022-08-01T00:39:30;4.8;;;4.4;;
69917;SDS011;57203;42.672;23.334;2022-08-01T00:40:31;4.9;;;4.5;;
69917;SDS011;57203;42.672;23.334;2022-08-01T00:41:31;4.9;;;4.8;;
69917;SDS011;57203;42.672;23.334;2022-08-01T00:42:31;5.4;;;5.8;;
69917;SDS011;57203;42.672;23.334;2022-08-01T00:43:31;6.5;;;5.4;;
69917;SDS011;57203;42.672;23.334;2022-08-01T00:44:32;6.1;;;5.8;;
69917;SDS011;57203;42.672;23.334;2022-08-01T00:45:32;6.9;;;5.4;;
69917;SDS011;57203;42.672;23.334;2022-08-01T00:46:32;5.9;;;5.3;;
69917;SDS011;57203;42.672;23.334;2022-08-01T00:47:32;5.8;;;6.1;;
69917;SDS011;57203;42.672;23.334;2022-08-01T00:49:33;6.7;;;5.7;;
69917;SDS011;57203;42.672;23.334;2022-08-01T00:51:33;6.3;;;5.8;;
69917;SDS011;57203;42.672;23.334;2022-08-01T00:53:34;6.3;;;6.2;;
69917;SDS011;57203;42.672;23.334;2022-08-01T00:54:34;7.2;;;5.7;;
69917;SDS011;57203;42.672;23.334;2022-08-01T00:55:34;6.3;;;6.3;;
69917;SDS011;57203;42.672;23.334;2022-08-01T00:56:34;7.1;;;5.7;;
69917;SDS011;57203;42.672;23.334;2022-08-01T00:57:34;6.3;;;6.4;;
69917;SDS011;57203;42.672;23.334;2022-08-01T00:59:35;7.3;;;6.0;;
69917;SDS011;57203;42.672;23.334;2022-08-01T01:00:35;6.6;;;6.1;;
69917;SDS011;57203;42.672;23.334;2022-08-01T01:01:35;6.8;;;6.2;;
69917;SDS011;57203;42.672;23.334;2022-08-01T01:02:36;7.1;;;5.6;;
69917;SDS011;57203;42.672;23.334;2022-08-01T01:03:36;6.2;;;5.5;;
69917;SDS011;57203;42.672;23.334;2022-08-01T01:04:36;6.5;;;5.6;;
69917;SDS011;57203;42.672;23.334;2022-08-01T01:05:39;7.3;;;5.8;;
69917;SDS011;57203;42.672;23.334;2022-08-01T01:06:40;6.4;;;6.0;;
69917;SDS011;57203;42.672;23.334;2022-08-01T01:07:40;7.1;;;5.9;;
69917;SDS011;57203;42.672;23.334;2022-08-01T01:08:39;6.5;;;6.1;;
69917;SDS011;57203;42.672;23.334;2022-08-01T01:09:39;6.7;;;5.8;;
69917;SDS011;57203;42.672;23.334;2022-08-01T01:10:46;6.4;;;5.9;;
69917;SDS011;57203;42.672;23.334;2022-08-01T01:11:39;6.5;;;5.7;;
69917;SDS011;57203;42.672;23.334;2022-08-01T01:12:40;7.2;;;5.6;;
69917;SDS011;57203;42.672;23.334;2022-08-01T01:13:40;6.8;;;5.9;;
69917;SDS011;57203;42.672;23.334;2022-08-01T01:14:39;6.6;;;5.4;;
69917;SDS011;57203;42.672;23.334;2022-08-01T01:15:39;6.0;;;4.8;;
69917;SDS011;57203;42.672;23.334;2022-08-01T01:16:39;5.9;;;5.3;;
69917;SDS011;57203;42.672;23.334;2022-08-01T01:17:40;5.8;;;5.2;;
69917;SDS011;57203;42.672;23.334;2022-08-01T01:18:41;6.2;;;5.0;;
69917;SDS011;57203;42.672;23.334;2022-08-01T01:19:41;5.6;;;4.9;;
69917;SDS011;57203;42.672;23.334;2022-08-01T01:20:40;5.4;;;4.7;;
69917;SDS011;57203;42.672;23.334;2022-08-01T01:21:47;5.6;;;5.0;;
69917;SDS011;57203;42.672;23.334;2022-08-01T01:22:46;5.6;;;4.8;;
69917;SDS011;57203;42.672;23.334;2022-08-01T01:23:44;5.3;;;4.9;;
69917;SDS011;57203;42.672;23.334;2022-08-01T01:24:43;5.4;;;4.8;;
69917;SDS011;57203;42.672;23.334;2022-08-01T01:25:45;5.2;;;4.9;;
69917;SDS011;57203;42.672;23.334;2022-08-01T01:26:43;5.3;;;4.7;;
69917;SDS011;57203;42.672;23.334;2022-08-01T01:27:45;5.2;;;5.1;;
69917;SDS011;57203;42.672;23.334;2022-08-01T01:28:49;6.6;;;4.7;;
69917;SDS011;57203;42.672;23.334;2022-08-01T01:29:42;5.1;;;4.2;;
69917;SDS011;57203;42.672;23.334;2022-08-01T01:30:43;4.6;;;4.5;;
69917;SDS011;57203;42.672;23.334;2022-08-01T01:31:44;7.4;;;4.9;;
69917;SDS011;57203;42.672;23.334;2022-08-01T01:32:43;4.0;;;3.5;;
69917;SDS011;57203;42.672;23.334;2022-08-01T01:33:42;4.0;;;4.3;;
69917;SDS011;57203;42.672;23.334;2022-08-01T01:34:43;5.4;;;3.9;;
69917;SDS011;57203;42.672;23.334;2022-08-01T01:36:43;4.3;;;3.7;;
69917;SDS011;57203;42.672;23.334;2022-08-01T01:37:43;3.3;;;3.0;;
69917;SDS011;57203;42.672;23.334;2022-08-01T01:38:44;3.3;;;3.3;;
69917;SDS011;57203;42.672;23.334;2022-08-01T01:39:44;3.8;;;2.6;;
69917;SDS011;57203;42.672;23.334;2022-08-01T01:40:44;3.0;;;2.7;;
69917;SDS011;57203;42.672;23.334;2022-08-01T01:41:45;3.0;;;2.5;;
69917;SDS011;57203;42.672;23.334;2022-08-01T01:42:44;3.2;;;2.9;;
69917;SDS011;57203;42.672;23.334;2022-08-01T01:43:45;3.7;;;2.4;;
69917;SDS011;57203;42.672;23.334;2022-08-01T01:44:45;3.1;;;2.1;;
69917;SDS011;57203;42.672;23.334;2022-08-01T01:46:45;2.3;;;1.9;;
69917;SDS011;57203;42.672;23.334;2022-08-01T01:47:45;3.1;;;1.7;;
69917;SDS011;57203;42.672;23.334;2022-08-01T01:48:46;4.5;;;1.6;;
69917;SDS011;57203;42.672;23.334;2022-08-01T01:49:46;2.4;;;1.4;;
69917;SDS011;57203;42.672;23.334;2022-08-01T01:50:47;1.6;;;1.9;;
69917;SDS011;57203;42.672;23.334;2022-08-01T01:51:46;2.7;;;1.6;;
69917;SDS011;57203;42.672;23.334;2022-08-01T01:52:47;3.2;;;1.7;;
69917;SDS011;57203;42.672;23.334;2022-08-01T01:53:47;3.7;;;1.5;;
69917;SDS011;57203;42.672;23.334;2022-08-01T01:54:47;3.0;;;1.9;;
69917;SDS011;57203;42.672;23.334;2022-08-01T01:55:48;4.4;;;1.5;;
69917;SDS011;57203;42.672;23.334;2022-08-01T01:56:47;3.1;;;1.6;;
69917;SDS011;57203;42.672;23.334;2022-08-01T01:57:48;3.2;;;1.2;;
69917;SDS011;57203;42.672;23.334;2022-08-01T01:58:48;2.4;;;1.5;;
69917;SDS011;57203;42.672;23.334;2022-08-01T02:00:49;2.1;;;1.4;;
69917;SDS011;57203;42.672;23.334;2022-08-01T02:01:49;1.7;;;1.5;;
69917;SDS011;57203;42.672;23.334;2022-08-01T02:03:49;3.1;;;1.2;;
69917;SDS011;57203;42.672;23.334;2022-08-01T02:04:49;1.6;;;1.4;;
69917;SDS011;57203;42.672;23.334;2022-08-01T02:05:49;2.5;;;1.3;;
69917;SDS011;57203;42.672;23.334;2022-08-01T02:06:50;2.8;;;1.4;;
69917;SDS011;57203;42.672;23.334;2022-08-01T02:08:50;2.0;;;1.2;;
69917;SDS011;57203;42.672;23.334;2022-08-01T02:09:50;3.0;;;1.5;;
69917;SDS011;57203;42.672;23.334;2022-08-01T02:10:52;3.0;;;1.3;;
69917;SDS011;57203;42.672;23.334;2022-08-01T02:11:51;3.3;;;1.4;;
69917;SDS011;57203;42.672;23.334;2022-08-01T02:13:53;4.2;;;1.5;;
69917;SDS011;57203;42.672;23.334;2022-08-01T02:14:52;2.2;;;1.2;;
69917;SDS011;57203;42.672;23.334;2022-08-01T02:15:52;1.8;;;1.4;;
69917;SDS011;57203;42.672;23.334;2022-08-01T02:16:52;2.4;;;1.5;;
69917;SDS011;57203;42.672;23.334;2022-08-01T02:17:52;2.4;;;1.2;;
69917;SDS011;57203;42.672;23.334;2022-08-01T02:18:53;2.4;;;1.4;;
69917;SDS011;57203;42.672;23.334;2022-08-01T02:19:53;1.7;;;1.5;;
69917;SDS011;57203;42.672;23.334;2022-08-01T02:20:53;2.6;;;1.8;;
69917;SDS011;57203;42.672;23.334;2022-08-01T02:21:55;3.0;;;1.4;;
69917;SDS011;57203;42.672;23.334;2022-08-01T02:24:55;3.4;;;1.3;;
69917;SDS011;57203;42.672;23.334;2022-08-01T02:26:54;1.9;;;1.4;;
69917;SDS011;57203;42.672;23.334;2022-08-01T02:27:56;2.1;;;1.3;;
69917;SDS011;57203;42.672;23.334;2022-08-01T02:28:56;2.9;;;1.4;;
69917;SDS011;57203;42.672;23.334;2022-08-01T02:29:56;3.8;;;1.5;;
69917;SDS011;57203;42.672;23.334;2022-08-01T02:30:56;2.6;;;1.4;;
69917;SDS011;57203;42.672;23.334;2022-08-01T02:31:55;4.3;;;1.2;;
69917;SDS011;57203;42.672;23.334;2022-08-01T02:32:58;1.8;;;1.5;;
69917;SDS011;57203;42.672;23.334;2022-08-01T02:33:57;2.6;;;1.3;;
69917;SDS011;57203;42.672;23.334;2022-08-01T02:34:56;2.6;;;1.4;;
69917;SDS011;57203;42.672;23.334;2022-08-01T02:35:58;2.9;;;1.7;;
69917;SDS011;57203;42.672;23.334;2022-08-01T02:36:57;4.7;;;1.9;;
69917;SDS011;57203;42.672;23.334;2022-08-01T02:37:57;3.3;;;1.8;;
69917;SDS011;57203;42.672;23.334;2022-08-01T02:39:57;3.8;;;1.9;;
69917;SDS011;57203;42.672;23.334;2022-08-01T02:40:58;5.7;;;1.7;;
69917;SDS011;57203;42.672;23.334;2022-08-01T02:41:59;3.9;;;1.9;;
69917;SDS011;57203;42.672;23.334;2022-08-01T02:42:58;3.3;;;1.8;;
69917;SDS011;57203;42.672;23.334;2022-08-01T02:43:59;3.1;;;2.0;;
69917;SDS011;57203;42.672;23.334;2022-08-01T02:44:58;2.8;;;2.1;;
69917;SDS011;57203;42.672;23.334;2022-08-01T02:46:59;3.3;;;2.2;;
69917;SDS011;57203;42.672;23.334;2022-08-01T02:48:00;3.0;;;2.1;;
69917;SDS011;57203;42.672;23.334;2022-08-01T02:49:00;2.5;;;2.2;;
69917;SDS011;57203;42.672;23.334;2022-08-01T02:52:00;3.3;;;1.9;;
69917;SDS011;57203;42.672;23.334;2022-08-01T02:53:00;3.3;;;2.1;;
69917;SDS011;57203;42.672;23.334;2022-08-01T02:55:01;2.9;;;2.3;;
69917;SDS011;57203;42.672;23.334;2022-08-01T02:56:01;2.9;;;2.4;;
69917;SDS011;57203;42.672;23.334;2022-08-01T02:57:01;4.6;;;2.7;;
69917;SDS011;57203;42.672;23.334;2022-08-01T02:58:01;3.0;;;2.8;;
69917;SDS011;57203;42.672;23.334;2022-08-01T02:59:02;3.1;;;2.7;;
69917;SDS011;57203;42.672;23.334;2022-08-01T03:00:03;3.1;;;2.8;;
69917;SDS011;57203;42.672;23.334;2022-08-01T03:01:02;5.3;;;3.4;;
69917;SDS011;57203;42.672;23.334;2022-08-01T03:02:02;6.2;;;3.1;;
69917;SDS011;57203;42.672;23.334;2022-08-01T03:03:03;4.0;;;3.2;;
69917;SDS011;57203;42.672;23.334;2022-08-01T03:04:03;3.7;;;3.0;;
69917;SDS011;57203;42.672;23.334;2022-08-01T03:05:03;4.6;;;3.8;;
69917;SDS011;57203;42.672;23.334;2022-08-01T03:06:03;6.5;;;3.4;;
69917;SDS011;57203;42.672;23.334;2022-08-01T03:07:04;5.7;;;3.6;;
69917;SDS011;57203;42.672;23.334;2022-08-01T03:08:04;5.2;;;3.4;;
69917;SDS011;57203;42.672;23.334;2022-08-01T03:09:04;4.0;;;3.8;;
69917;SDS011;57203;42.672;23.334;2022-08-01T03:10:04;4.5;;;3.6;;
69917;SDS011;57203;42.672;23.334;2022-08-01T03:11:04;4.5;;;3.9;;
69917;SDS011;57203;42.672;23.334;2022-08-01T03:12:06;5.3;;;3.8;;
69917;SDS011;57203;42.672;23.334;2022-08-01T03:13:05;4.8;;;3.9;;
69917;SDS011;57203;42.672;23.334;2022-08-01T03:14:05;5.0;;;4.0;;
69917;SDS011;57203;42.672;23.334;2022-08-01T03:15:05;8.0;;;4.4;;
69917;SDS011;57203;42.672;23.334;2022-08-01T03:16:05;8.0;;;3.7;;
69917;SDS011;57203;42.672;23.334;2022-08-01T03:17:05;4.8;;;3.5;;
69917;SDS011;57203;42.672;23.334;2022-08-01T03:18:06;4.8;;;3.9;;
69917;SDS011;57203;42.672;23.334;2022-08-01T03:19:06;5.8;;;3.6;;
69917;SDS011;57203;42.672;23.334;2022-08-01T03:20:06;4.0;;;3.8;;
69917;SDS011;57203;42.672;23.334;2022-08-01T03:21:06;5.2;;;3.7;;
69917;SDS011;57203;42.672;23.334;2022-08-01T03:22:08;4.6;;;4.4;;
69917;SDS011;57203;42.672;23.334;2022-08-01T03:23:07;6.5;;;4.3;;
69917;SDS011;57203;42.672;23.334;2022-08-01T03:24:07;6.4;;;4.0;;
69917;SDS011;57203;42.672;23.334;2022-08-01T03:25:07;5.3;;;4.2;;
69917;SDS011;57203;42.672;23.334;2022-08-01T03:26:07;6.5;;;4.0;;
69917;SDS011;57203;42.672;23.334;2022-08-01T03:27:08;5.2;;;4.2;;
69917;SDS011;57203;42.672;23.334;2022-08-01T03:28:08;5.2;;;4.1;;
69917;SDS011;57203;42.672;23.334;2022-08-01T03:29:09;6.0;;;4.3;;
69917;SDS011;57203;42.672;23.334;2022-08-01T03:30:08;5.8;;;4.5;;
69917;SDS011;57203;42.672;23.334;2022-08-01T03:31:08;5.0;;;4.1;;
69917;SDS011;57203;42.672;23.334;2022-08-01T03:32:09;5.4;;;4.2;;
69917;SDS011;57203;42.672;23.334;2022-08-01T03:33:09;5.4;;;3.9;;
69917;SDS011;57203;42.672;23.334;2022-08-01T03:34:09;5.4;;;3.7;;
69917;SDS011;57203;42.672;23.334;2022-08-01T03:35:09;4.3;;;3.9;;
69917;SDS011;57203;42.672;23.334;2022-08-01T03:36:09;4.3;;;3.8;;
69917;SDS011;57203;42.672;23.334;2022-08-01T03:37:12;5.1;;;3.7;;
69917;SDS011;57203;42.672;23.334;2022-08-01T03:38:10;5.0;;;4.2;;
69917;SDS011;57203;42.672;23.334;2022-08-01T03:39:10;5.3;;;3.8;;
69917;SDS011;57203;42.672;23.334;2022-08-01T03:40:12;6.1;;;4.3;;
69917;SDS011;57203;42.672;23.334;2022-08-01T03:41:11;4.8;;;4.1;;
69917;SDS011;57203;42.672;23.334;2022-08-01T03:42:12;4.8;;;4.0;;
69917;SDS011;57203;42.672;23.334;2022-08-01T03:43:13;4.0;;;3.6;;
69917;SDS011;57203;42.672;23.334;2022-08-01T03:44:13;4.0;;;4.1;;
69917;SDS011;57203;42.672;23.334;2022-08-01T03:45:14;4.7;;;3.4;;
69917;SDS011;57203;42.672;23.334;2022-08-01T03:46:16;4.6;;;3.3;;
69917;SDS011;57203;42.672;23.334;2022-08-01T03:47:12;4.1;;;3.2;;
69917;SDS011;57203;42.672;23.334;2022-08-01T03:48:13;4.9;;;3.6;;
69917;SDS011;57203;42.672;23.334;2022-08-01T03:49:14;5.9;;;3.5;;
69917;SDS011;57203;42.672;23.334;2022-08-01T03:50:13;4.0;;;3.1;;
69917;SDS011;57203;42.672;23.334;2022-08-01T03:51:13;5.1;;;3.3;;
69917;SDS011;57203;42.672;23.334;2022-08-01T03:52:13;6.1;;;3.6;;
69917;SDS011;57203;42.672;23.334;2022-08-01T03:53:13;4.0;;;4.0;;
69917;SDS011;57203;42.672;23.334;2022-08-01T03:54:13;5.9;;;3.8;;
69917;SDS011;57203;42.672;23.334;2022-08-01T03:55:14;4.8;;;3.6;;
69917;SDS011;57203;42.672;23.334;2022-08-01T03:56:16;4.8;;;3.7;;
69917;SDS011;57203;42.672;23.334;2022-08-01T03:57:14;4.0;;;3.6;;
69917;SDS011;57203;42.672;23.334;2022-08-01T03:58:14;4.4;;;3.7;;
69917;SDS011;57203;42.672;23.334;2022-08-01T03:59:14;5.9;;;3.2;;
69917;SDS011;57203;42.672;23.334;2022-08-01T04:01:15;4.3;;;3.9;;
69917;SDS011;57203;42.672;23.334;2022-08-01T04:02:15;4.3;;;4.2;;
69917;SDS011;57203;42.672;23.334;2022-08-01T04:03:15;5.6;;;4.8;;
69917;SDS011;57203;42.672;23.334;2022-08-01T04:04:15;11.8;;;3.9;;
69917;SDS011;57203;42.672;23.334;2022-08-01T04:05:16;5.2;;;4.0;;
69917;SDS011;57203;42.672;23.334;2022-08-01T04:06:16;5.8;;;3.7;;
69917;SDS011;57203;42.672;23.334;2022-08-01T04:07:24;5.8;;;4.1;;
69917;SDS011;57203;42.672;23.334;2022-08-01T04:09:16;4.9;;;4.0;;
69917;SDS011;57203;42.672;23.334;2022-08-01T04:10:17;4.4;;;4.6;;
69917;SDS011;57203;42.672;23.334;2022-08-01T04:12:17;8.1;;;4.3;;
69917;SDS011;57203;42.672;23.334;2022-08-01T04:13:17;5.4;;;4.5;;
69917;SDS011;57203;42.672;23.334;2022-08-01T04:14:18;5.6;;;4.2;;
69917;SDS011;57203;42.672;23.334;2022-08-01T04:15:18;5.4;;;4.4;;
69917;SDS011;57203;42.672;23.334;2022-08-01T04:16:18;6.9;;;4.0;;
69917;SDS011;57203;42.672;23.334;2022-08-01T04:17:18;5.8;;;4.7;;
69917;SDS011;57203;42.672;23.334;2022-08-01T04:18:18;5.8;;;4.8;;
69917;SDS011;57203;42.672;23.334;2022-08-01T04:19:19;5.3;;;5.4;;
69917;SDS011;57203;42.672;23.334;2022-08-01T04:20:19;7.4;;;4.5;;
69917;SDS011;57203;42.672;23.334;2022-08-01T04:21:20;5.4;;;5.1;;
69917;SDS011;57203;42.672;23.334;2022-08-01T04:22:19;6.5;;;4.7;;
69917;SDS011;57203;42.672;23.334;2022-08-01T04:23:20;6.5;;;5.3;;
69917;SDS011;57203;42.672;23.334;2022-08-01T04:25:21;6.6;;;5.2;;
69917;SDS011;57203;42.672;23.334;2022-08-01T04:26:20;8.2;;;5.0;;
69917;SDS011;57203;42.672;23.334;2022-08-01T04:27:21;6.1;;;5.4;;
69917;SDS011;57203;42.672;23.334;2022-08-01T04:28:21;8.4;;;5.3;;
69917;SDS011;57203;42.672;23.334;2022-08-01T04:29:21;8.8;;;4.9;;
69917;SDS011;57203;42.672;23.334;2022-08-01T04:30:23;6.2;;;5.5;;
69917;SDS011;57203;42.672;23.334;2022-08-01T04:31:22;6.4;;;5.1;;
69917;SDS011;57203;42.672;23.334;2022-08-01T04:33:22;7.0;;;5.4;;
69917;SDS011;57203;42.672;23.334;2022-08-01T04:34:23;7.4;;;5.8;;
69917;SDS011;57203;42.672;23.334;2022-08-01T04:35:22;7.4;;;5.5;;
69917;SDS011;57203;42.672;23.334;2022-08-01T04:37:23;9.2;;;5.4;;
69917;SDS011;57203;42.672;23.334;2022-08-01T04:38:24;6.4;;;6.1;;
69917;SDS011;57203;42.672;23.334;2022-08-01T04:39:23;7.9;;;6.2;;
69917;SDS011;57203;42.672;23.334;2022-08-01T04:40:23;10.6;;;5.9;;
69917;SDS011;57203;42.672;23.334;2022-08-01T04:41:23;7.9;;;6.0;;
69917;SDS011;57203;42.672;23.334;2022-08-01T04:42:24;10.4;;;6.4;;
69917;SDS011;57203;42.672;23.334;2022-08-01T04:43:24;10.4;;;6.7;;
69917;SDS011;57203;42.672;23.334;2022-08-01T04:44:24;9.2;;;6.6;;
69917;SDS011;57203;42.672;23.334;2022-08-01T04:45:24;8.9;;;6.2;;
69917;SDS011;57203;42.672;23.334;2022-08-01T04:47:25;7.0;;;5.3;;
69917;SDS011;57203;42.672;23.334;2022-08-01T04:48:25;7.6;;;5.1;;
69917;SDS011;57203;42.672;23.334;2022-08-01T04:49:25;9.9;;;5.2;;
69917;SDS011;57203;42.672;23.334;2022-08-01T04:50:25;9.4;;;5.4;;
69917;SDS011;57203;42.672;23.334;2022-08-01T04:51:26;8.2;;;5.7;;
69917;SDS011;57203;42.672;23.334;2022-08-01T04:52:32;7.7;;;6.7;;
69917;SDS011;57203;42.672;23.334;2022-08-01T04:53:26;9.1;;;6.3;;
69917;SDS011;57203;42.672;23.334;2022-08-01T04:54:26;8.7;;;6.2;;
69917;SDS011;57203;42.672;23.334;2022-08-01T04:55:26;8.4;;;6.7;;
69917;SDS011;57203;42.672;23.334;2022-08-01T04:56:27;8.6;;;6.3;;
69917;SDS011;57203;42.672;23.334;2022-08-01T04:57:27;11.2;;;7.0;;
69917;SDS011;57203;42.672;23.334;2022-08-01T04:58:27;10.7;;;6.1;;
69917;SDS011;57203;42.672;23.334;2022-08-01T04:59:27;8.7;;;6.9;;
69917;SDS011;57203;42.672;23.334;2022-08-01T05:00:27;10.0;;;6.2;;
69917;SDS011;57203;42.672;23.334;2022-08-01T05:01:28;10.0;;;6.8;;
69917;SDS011;57203;42.672;23.334;2022-08-01T05:02:28;9.3;;;6.2;;
69917;SDS011;57203;42.672;23.334;2022-08-01T05:03:28;10.0;;;6.6;;
69917;SDS011;57203;42.672;23.334;2022-08-01T05:04:28;9.2;;;6.4;;
69917;SDS011;57203;42.672;23.334;2022-08-01T05:05:28;13.5;;;6.2;;
69917;SDS011;57203;42.672;23.334;2022-08-01T05:06:29;8.1;;;6.8;;
69917;SDS011;57203;42.672;23.334;2022-08-01T05:07:29;9.5;;;6.4;;
69917;SDS011;57203;42.672;23.334;2022-08-01T05:08:29;11.4;;;6.9;;
69917;SDS011;57203;42.672;23.334;2022-08-01T05:09:29;10.6;;;7.6;;
69917;SDS011;57203;42.672;23.334;2022-08-01T05:10:30;11.4;;;7.1;;
69917;SDS011;57203;42.672;23.334;2022-08-01T05:11:30;13.8;;;6.8;;
69917;SDS011;57203;42.672;23.334;2022-08-01T05:13:30;11.5;;;6.5;;
69917;SDS011;57203;42.672;23.334;2022-08-01T05:14:31;11.5;;;7.2;;
69917;SDS011;57203;42.672;23.334;2022-08-01T05:15:31;15.1;;;6.2;;
69917;SDS011;57203;42.672;23.334;2022-08-01T05:16:31;9.7;;;5.7;;
69917;SDS011;57203;42.672;23.334;2022-08-01T05:17:31;9.9;;;5.3;;
69917;SDS011;57203;42.672;23.334;2022-08-01T05:18:31;8.8;;;6.2;;
69917;SDS011;57203;42.672;23.334;2022-08-01T05:19:32;12.8;;;6.3;;
69917;SDS011;57203;42.672;23.334;2022-08-01T05:20:32;11.7;;;5.5;;
69917;SDS011;57203;42.672;23.334;2022-08-01T05:21:32;7.8;;;6.0;;
69917;SDS011;57203;42.672;23.334;2022-08-01T05:22:32;9.8;;;6.1;;
69917;SDS011;57203;42.672;23.334;2022-08-01T05:23:32;13.0;;;5.5;;
69917;SDS011;57203;42.672;23.334;2022-08-01T05:24:33;11.1;;;5.8;;
69917;SDS011;57203;42.672;23.334;2022-08-01T05:25:33;11.4;;;5.1;;
69917;SDS011;57203;42.672;23.334;2022-08-01T05:26:33;8.4;;;4.9;;
69917;SDS011;57203;42.672;23.334;2022-08-01T05:27:33;9.8;;;5.2;;
69917;SDS011;57203;42.672;23.334;2022-08-01T05:28:34;12.9;;;6.5;;
69917;SDS011;57203;42.672;23.334;2022-08-01T05:29:34;13.6;;;5.2;;
69917;SDS011;57203;42.672;23.334;2022-08-01T05:30:34;11.0;;;4.4;;
69917;SDS011;57203;42.672;23.334;2022-08-01T05:32:35;9.2;;;4.3;;
69917;SDS011;57203;42.672;23.334;2022-08-01T05:33:35;8.0;;;4.1;;
69917;SDS011;57203;42.672;23.334;2022-08-01T05:34:35;8.6;;;4.7;;
69917;SDS011;57203;42.672;23.334;2022-08-01T05:35:35;7.8;;;4.0;;
69917;SDS011;57203;42.672;23.334;2022-08-01T05:36:35;7.8;;;4.6;;
69917;SDS011;57203;42.672;23.334;2022-08-01T05:37:36;7.1;;;3.7;;
69917;SDS011;57203;42.672;23.334;2022-08-01T05:38:36;8.0;;;3.6;;
69917;SDS011;57203;42.672;23.334;2022-08-01T05:39:36;6.4;;;4.1;;
69917;SDS011;57203;42.672;23.334;2022-08-01T05:40:36;8.2;;;3.8;;
69917;SDS011;57203;42.672;23.334;2022-08-01T05:41:37;6.3;;;4.1;;
69917;SDS011;57203;42.672;23.334;2022-08-01T05:42:37;5.7;;;3.9;;
69917;SDS011;57203;42.672;23.334;2022-08-01T05:43:37;9.0;;;3.8;;
69917;SDS011;57203;42.672;23.334;2022-08-01T05:44:37;5.6;;;3.7;;
69917;SDS011;57203;42.672;23.334;2022-08-01T05:46:38;4.8;;;3.9;;
69917;SDS011;57203;42.672;23.334;2022-08-01T05:47:38;6.8;;;4.2;;
69917;SDS011;57203;42.672;23.334;2022-08-01T05:48:38;7.8;;;3.7;;
69917;SDS011;57203;42.672;23.334;2022-08-01T05:49:38;7.8;;;4.4;;
69917;SDS011;57203;42.672;23.334;2022-08-01T05:50:39;6.5;;;3.9;;
69917;SDS011;57203;42.672;23.334;2022-08-01T05:51:39;6.5;;;3.7;;
69917;SDS011;57203;42.672;23.334;2022-08-01T05:52:39;7.5;;;3.8;;
69917;SDS011;57203;42.672;23.334;2022-08-01T05:53:39;9.4;;;4.0;;
69917;SDS011;57203;42.672;23.334;2022-08-01T05:54:40;6.6;;;3.7;;
69917;SDS011;57203;42.672;23.334;2022-08-01T05:55:40;5.6;;;3.6;;
69917;SDS011;57203;42.672;23.334;2022-08-01T05:56:40;5.5;;;3.4;;
69917;SDS011;57203;42.672;23.334;2022-08-01T05:57:40;6.9;;;2.7;;
69917;SDS011;57203;42.672;23.334;2022-08-01T05:58:41;4.7;;;3.8;;
69917;SDS011;57203;42.672;23.334;2022-08-01T05:59:41;6.5;;;3.5;;
69917;SDS011;57203;42.672;23.334;2022-08-01T06:00:41;6.0;;;3.3;;
69917;SDS011;57203;42.672;23.334;2022-08-01T06:01:41;7.4;;;3.1;;
69917;SDS011;57203;42.672;23.334;2022-08-01T06:02:42;6.7;;;2.7;;
69917;SDS011;57203;42.672;23.334;2022-08-01T06:03:42;5.2;;;3.3;;
69917;SDS011;57203;42.672;23.334;2022-08-01T06:04:42;8.5;;;3.1;;
69917;SDS011;57203;42.672;23.334;2022-08-01T06:05:42;5.7;;;3.0;;
69917;SDS011;57203;42.672;23.334;2022-08-01T06:06:42;6.8;;;3.7;;
69917;SDS011;57203;42.672;23.334;2022-08-01T06:07:43;4.7;;;3.0;;
69917;SDS011;57203;42.672;23.334;2022-08-01T06:08:43;7.6;;;2.9;;
69917;SDS011;57203;42.672;23.334;2022-08-01T06:09:43;7.6;;;2.7;;
69917;SDS011;57203;42.672;23.334;2022-08-01T06:10:43;4.8;;;2.4;;
69917;SDS011;57203;42.672;23.334;2022-08-01T06:11:44;5.3;;;2.3;;
69917;SDS011;57203;42.672;23.334;2022-08-01T06:13:44;5.4;;;2.2;;
69917;SDS011;57203;42.672;23.334;2022-08-01T06:14:44;3.4;;;1.9;;
69917;SDS011;57203;42.672;23.334;2022-08-01T06:15:44;3.8;;;1.5;;
69917;SDS011;57203;42.672;23.334;2022-08-01T06:16:45;8.3;;;1.8;;
69917;SDS011;57203;42.672;23.334;2022-08-01T06:17:45;3.4;;;2.0;;
69917;SDS011;57203;42.672;23.334;2022-08-01T06:18:45;5.7;;;1.7;;
69917;SDS011;57203;42.672;23.334;2022-08-01T06:21:46;2.4;;;1.9;;
69917;SDS011;57203;42.672;23.334;2022-08-01T06:23:46;2.6;;;1.8;;
69917;SDS011;57203;42.672;23.334;2022-08-01T06:24:46;4.5;;;1.9;;
69917;SDS011;57203;42.672;23.334;2022-08-01T06:25:47;3.0;;;1.6;;
69917;SDS011;57203;42.672;23.334;2022-08-01T06:26:47;3.2;;;1.9;;
69917;SDS011;57203;42.672;23.334;2022-08-01T06:27:47;4.1;;;1.6;;
69917;SDS011;57203;42.672;23.334;2022-08-01T06:29:48;3.9;;;1.9;;
69917;SDS011;57203;42.672;23.334;2022-08-01T06:30:48;2.7;;;1.7;;
69917;SDS011;57203;42.672;23.334;2022-08-01T06:31:48;4.0;;;1.9;;
69917;SDS011;57203;42.672;23.334;2022-08-01T06:34:49;3.2;;;1.8;;
69917;SDS011;57203;42.672;23.334;2022-08-01T06:35:49;3.7;;;1.6;;
69917;SDS011;57203;42.672;23.334;2022-08-01T06:36:49;4.1;;;2.4;;
69917;SDS011;57203;42.672;23.334;2022-08-01T06:37:49;4.1;;;1.7;;
69917;SDS011;57203;42.672;23.334;2022-08-01T06:38:50;5.6;;;1.8;;
69917;SDS011;57203;42.672;23.334;2022-08-01T06:39:50;3.1;;;2.0;;
69917;SDS011;57203;42.672;23.334;2022-08-01T06:40:50;2.8;;;1.8;;
69917;SDS011;57203;42.672;23.334;2022-08-01T06:41:50;3.1;;;1.9;;
69917;SDS011;57203;42.672;23.334;2022-08-01T06:44:51;2.8;;;1.8;;
69917;SDS011;57203;42.672;23.334;2022-08-01T06:45:51;3.0;;;2.0;;
69917;SDS011;57203;42.672;23.334;2022-08-01T06:47:52;5.3;;;2.2;;
69917;SDS011;57203;42.672;23.334;2022-08-01T06:48:52;5.3;;;1.7;;
69917;SDS011;57203;42.672;23.334;2022-08-01T06:49:52;4.7;;;1.8;;
69917;SDS011;57203;42.672;23.334;2022-08-01T06:50:53;4.7;;;1.7;;
69917;SDS011;57203;42.672;23.334;2022-08-01T06:51:53;3.6;;;2.0;;
69917;SDS011;57203;42.672;23.334;2022-08-01T06:52:53;4.5;;;1.8;;